This is the latest recevied weather packets stored in our database for station/object CE3TL-WX. If no packets are shown the sender has not sent any weather packets the latest 1 day(s).
| Time | Temp. | Humidity | Pressure | Rain* | Wind** | Luminosity | Snow |
|---|---|---|---|---|---|---|---|
| 1778034075 | 13.89° C | 70% | 1023.1 hPa | - | - | - | - |
| 1778033541 | 13.89° C | 70% | 1023 hPa | - | - | - | - |
| 1778032471 | 13.89° C | 69% | 1023 hPa | - | - | - | - |
| 1778031937 | 13.89° C | 68% | 1023 hPa | - | - | - | - |
| 1778031403 | 13.89° C | 69% | 1023 hPa | - | - | - | - |
| 1778030868 | 14.44° C | 67% | 1023.1 hPa | - | - | - | - |
| 1778030334 | 13.89° C | 69% | 1023.2 hPa | - | - | - | - |
| 1778029800 | 14.44° C | 67% | 1023.1 hPa | - | - | - | - |
| 1778028196 | 14.44° C | 66% | 1023.2 hPa | - | - | - | - |
| 1778027662 | 15° C | 66% | 1023.2 hPa | - | - | - | - |
| 1778027128 | 15° C | 65% | 1022.9 hPa | - | - | - | - |
| 1778026061 | 15.56° C | 63% | 1022.5 hPa | - | - | - | - |
| 1778024460 | 15.56° C | 63% | 1022.2 hPa | - | - | - | - |
| 1778023926 | 16.11° C | 62% | 1022.2 hPa | - | - | - | - |
| 1778019654 | 17.22° C | 54% | 1021.3 hPa | - | - | - | - |
| 1778018585 | 17.22° C | 51% | 1021.2 hPa | - | - | - | - |
| 1778016983 | 17.78° C | 49% | 1020.5 hPa | - | - | - | - |
| 1778015380 | 18.33° C | 46% | 1020.3 hPa | - | - | - | - |
| 1778014845 | 18.33° C | 45% | 1020.2 hPa | - | - | - | - |
| 1778014311 | 18.89° C | 45% | 1020.3 hPa | - | - | - | - |
| 1778011108 | 19.44° C | 42% | 1020.3 hPa | - | - | - | - |
| 1778010575 | 19.44° C | 41% | 1020.2 hPa | - | - | - | - |
| 1778008437 | 20.56° C | 35% | 1020 hPa | - | - | - | - |
| 1778007902 | 20.56° C | 35% | 1019.8 hPa | - | - | - | - |
| 1778003095 | 21.11° C | 33% | 1019.5 hPa | - | - | - | - |
* Rain since midnight (hover to see other rain measurements)
** Current wind speed in m/s (hover to see current wind gust speed)